Emma, Missouri
Current Conditions -  °F | °C
As of 12:58 PM on Saturday 20 Dec 2014 (Local Time) from KSZL Reporting Station
Overcast Overcast  
Wind Chill: 33°   Ceiling: 1100
Heat Index: 39°   Visibility: 10mi
Dew Point: 35°   Wind: 8mph
Humidity: 86%   Direction: 210°SSW
Pressure: 30.17"   Gusts: NA
Location:  38.97°N, 93.49°W
Report Text: KSZL 201858Z AUTO 21007KT 10SM OVC011 04/02 A3017 RMK AO2 SLP226 T00370016 $
Loading
Personal Weather Stations






























Interactive Weather Map New forecast layout! Learn more

10-Day Weather Forecast

Advertisements
Track Severe Weather on mobile